createdAt,value
2022-12-27T00:01:56.899Z,78.02
2022-12-27T00:04:25.617Z,79.16
2022-12-27T00:06:55.456Z,77.28
2022-12-27T00:09:24.512Z,77.27
2022-12-27T00:11:58.115Z,77.73
2022-12-27T00:14:28.536Z,77.86
2022-12-27T00:16:57.041Z,77.42
2022-12-27T00:19:26.096Z,78.25
2022-12-27T00:21:55.934Z,77.89
2022-12-27T00:24:24.490Z,78.54
2022-12-27T00:26:52.946Z,79.06
2022-12-27T00:29:22.895Z,78.64
2022-12-27T00:31:51.441Z,79.67
2022-12-27T00:34:19.965Z,80.05
2022-12-27T00:36:48.446Z,80.28
2022-12-27T00:39:18.334Z,80.34
2022-12-27T00:41:47.517Z,79.52
2022-12-27T00:44:16.515Z,79.41
2022-12-27T00:46:45.249Z,78.82
2022-12-27T00:49:13.791Z,78.28
2022-12-27T00:51:42.359Z,78.84
2022-12-27T00:54:10.979Z,79.63
2022-12-27T00:56:41.154Z,78.57
2022-12-27T00:59:12.757Z,79.08
2022-12-27T01:01:42.412Z,79.95
2022-12-27T01:04:13.268Z,79.29
2022-12-27T01:06:41.729Z,78.68
2022-12-27T01:09:10.237Z,79.42
2022-12-27T01:11:41.584Z,79.33
2022-12-27T01:14:11.717Z,77.88
2022-12-27T01:16:40.638Z,78.55
2022-12-27T01:19:09.196Z,78.42
2022-12-27T01:21:38.133Z,78.26
2022-12-27T01:24:07.170Z,78.42
2022-12-27T01:26:35.629Z,77.82
2022-12-27T01:29:05.532Z,77.49
2022-12-27T01:31:34.208Z,76.96
2022-12-27T01:34:02.694Z,77.00
2022-12-27T01:36:32.399Z,76.74
2022-12-27T01:39:01.760Z,76.49
2022-12-27T01:41:58.348Z,77.14
2022-12-27T01:44:53.918Z,76.93
2022-12-27T01:47:35.089Z,77.24
2022-12-27T01:50:22.126Z,78.03
2022-12-27T01:52:56.501Z,76.74
2022-12-27T01:55:32.732Z,76.49
2022-12-27T01:58:05.130Z,77.91
2022-12-27T02:00:34.963Z,77.08
2022-12-27T02:03:06.348Z,77.54
2022-12-27T02:05:35.998Z,77.68
2022-12-27T02:08:18.289Z,78.06
2022-12-27T02:10:47.197Z,78.51
2022-12-27T02:13:17.799Z,77.96
2022-12-27T02:15:47.788Z,77.96
2022-12-27T02:18:16.937Z,79.07
2022-12-27T02:21:05.500Z,79.08
2022-12-27T02:24:06.941Z,79.06
2022-12-27T02:26:44.891Z,79.39
2022-12-27T02:29:42.384Z,79.32
2022-12-27T02:32:17.924Z,79.36
2022-12-27T02:34:53.080Z,81.40
2022-12-27T02:37:24.444Z,80.73
2022-12-27T02:39:54.731Z,81.09
2022-12-27T02:42:41.103Z,81.40
2022-12-27T02:45:45.383Z,82.73
2022-12-27T02:48:33.555Z,82.82
2022-12-27T02:51:31.801Z,82.19
2022-12-27T02:54:10.535Z,83.00
2022-12-27T02:57:04.747Z,83.91
2022-12-27T03:00:11.657Z,83.26
2022-12-27T03:03:10.396Z,83.18
2022-12-27T03:06:09.595Z,83.57
2022-12-27T03:08:47.434Z,83.44
2022-12-27T03:11:34.443Z,83.94
2022-12-27T03:14:26.946Z,84.05
2022-12-27T03:17:01.709Z,85.08
2022-12-27T03:19:55.343Z,84.86
2022-12-27T03:22:58.855Z,84.77
2022-12-27T03:25:29.375Z,85.20
2022-12-27T03:28:21.345Z,84.87
2022-12-27T03:31:13.136Z,84.73
2022-12-27T03:33:43.589Z,83.84
2022-12-27T03:36:35.279Z,83.75
2022-12-27T03:39:09.999Z,84.74
2022-12-27T03:41:59.401Z,83.77
2022-12-27T03:44:28.745Z,83.71
2022-12-27T03:46:58.813Z,84.58
2022-12-27T03:49:35.008Z,85.41
2022-12-27T03:52:09.662Z,85.15
2022-12-27T03:54:40.567Z,85.49
2022-12-27T03:57:12.473Z,85.08
2022-12-27T03:59:41.435Z,84.36
2022-12-27T04:02:11.039Z,85.47
2022-12-27T04:04:39.910Z,86.04
2022-12-27T04:07:10.143Z,85.86
2022-12-27T04:09:56.137Z,86.29
2022-12-27T04:12:42.775Z,85.89
2022-12-27T04:15:29.166Z,86.48
2022-12-27T04:18:15.067Z,88.01
2022-12-27T04:21:01.292Z,86.81
2022-12-27T04:23:48.517Z,88.45
2022-12-27T04:26:34.392Z,87.77
2022-12-27T04:29:20.569Z,88.13
2022-12-27T04:32:07.275Z,88.61
2022-12-27T08:58:53.465Z,86.43
2022-12-27T09:01:22.464Z,87.01
2022-12-27T09:03:51.125Z,87.67
2022-12-27T09:06:22.669Z,86.16
2022-12-27T09:08:52.554Z,85.98
2022-12-27T09:11:22.671Z,87.26
2022-12-27T09:13:53.199Z,87.10
2022-12-27T09:16:23.728Z,85.71
2022-12-27T09:18:54.661Z,86.25
2022-12-27T09:21:24.925Z,86.89
2022-12-27T09:23:53.905Z,86.51
2022-12-27T09:26:24.373Z,85.36
2022-12-27T09:28:54.946Z,85.36
2022-12-27T09:31:24.368Z,86.63
2022-12-27T09:33:53.323Z,84.87
2022-12-27T09:36:23.945Z,85.06
2022-12-27T09:38:53.571Z,85.79
2022-12-27T09:42:26.012Z,85.30
2022-12-27T09:44:27.207Z,85.35
2022-12-27T09:47:00.256Z,83.97
2022-12-27T09:49:34.453Z,84.84
2022-12-27T09:52:09.044Z,83.61
2022-12-27T09:54:48.681Z,81.57
2022-12-27T09:57:23.878Z,80.83
2022-12-27T09:59:59.529Z,80.34
2022-12-27T10:02:30.492Z,79.94
2022-12-27T10:07:58.786Z,76.80
2022-12-27T10:10:43.487Z,75.84
2022-12-27T10:13:27.995Z,76.74
2022-12-27T10:16:09.323Z,77.03
2022-12-27T10:18:49.833Z,75.80
2022-12-27T10:21:23.369Z,76.53
2022-12-27T10:23:56.812Z,73.96
2022-12-27T10:26:25.759Z,73.13
2022-12-27T10:28:59.964Z,75.29
2022-12-27T10:31:32.238Z,75.30
2022-12-27T10:34:03.913Z,75.94
2022-12-27T10:36:35.229Z,74.99
2022-12-27T10:39:05.190Z,74.68
2022-12-27T10:41:44.986Z,72.93
2022-12-27T10:44:13.581Z,72.94
2022-12-27T10:46:50.568Z,73.16
2022-12-27T10:49:25.983Z,73.68
2022-12-27T10:51:56.946Z,71.92
2022-12-27T10:54:27.459Z,72.83
2022-12-27T10:56:58.004Z,72.69
2022-12-27T10:59:28.627Z,71.20
2022-12-27T11:02:17.837Z,71.37
2022-12-27T11:05:00.235Z,70.25
2022-12-27T11:07:32.949Z,69.27
2022-12-27T11:10:16.918Z,69.79
2022-12-27T11:12:59.729Z,68.40
2022-12-27T11:15:30.189Z,69.30
2022-12-27T11:18:03.387Z,69.20
2022-12-27T11:20:34.779Z,66.77
2022-12-27T11:23:06.846Z,66.19
2022-12-27T11:25:36.458Z,64.88
2022-12-27T11:28:07.384Z,63.68
2022-12-27T11:30:40.091Z,64.12
2022-12-27T11:33:24.649Z,63.64
2022-12-27T11:35:56.925Z,62.52
2022-12-27T11:38:28.162Z,62.88
2022-12-27T11:41:03.227Z,62.44
2022-12-27T11:43:38.004Z,64.16
2022-12-27T11:46:16.345Z,63.66
2022-12-27T11:48:46.711Z,64.32
2022-12-27T11:51:45.276Z,64.29
2022-12-27T11:54:29.802Z,66.16
2022-12-27T11:57:10.458Z,66.45
2022-12-27T11:59:55.254Z,67.31
2022-12-27T12:02:31.645Z,69.25
2022-12-27T12:05:44.589Z,68.18
2022-12-27T12:08:38.607Z,66.62
2022-12-27T12:11:19.790Z,65.63
2022-12-27T12:14:05.150Z,65.61
2022-12-27T12:17:01.250Z,64.61
2022-12-27T12:19:44.705Z,63.51
2022-12-27T12:22:35.683Z,64.16
2022-12-27T12:25:45.016Z,61.05
2022-12-27T12:28:59.318Z,61.82
2022-12-27T12:31:53.708Z,62.07
2022-12-27T12:34:40.547Z,59.40
2022-12-27T12:37:31.627Z,60.06
2022-12-27T12:40:33.659Z,59.35
2022-12-27T12:43:17.670Z,60.63
2022-12-27T12:46:08.312Z,60.82
2022-12-27T12:48:55.473Z,62.09
2022-12-27T12:51:49.915Z,63.11
2022-12-27T12:54:34.397Z,61.74
2022-12-27T12:57:16.596Z,58.86
2022-12-27T13:00:09.138Z,60.60
2022-12-27T13:03:03.447Z,60.59
2022-12-27T13:05:44.077Z,60.66
2022-12-27T13:08:19.752Z,59.71
2022-12-27T13:11:05.758Z,60.34
2022-12-27T13:13:46.179Z,57.99
2022-12-27T13:16:25.187Z,59.05
2022-12-27T13:19:06.689Z,59.67
2022-12-27T13:21:53.436Z,59.36
2022-12-27T13:24:32.828Z,61.10
2022-12-27T13:27:10.485Z,59.80
2022-12-27T13:29:54.069Z,59.94
2022-12-27T13:32:34.928Z,61.52
2022-12-27T13:35:21.223Z,62.82
2022-12-27T13:38:05.184Z,59.86
2022-12-27T13:40:52.497Z,62.12
2022-12-27T13:43:48.148Z,62.21
2022-12-27T13:46:42.388Z,60.69
2022-12-27T13:49:35.117Z,62.02
2022-12-27T13:52:17.871Z,61.86
2022-12-27T13:55:12.649Z,62.90
2022-12-27T13:58:08.891Z,62.82
2022-12-27T14:00:45.968Z,62.58
2022-12-27T14:03:45.112Z,63.61
2022-12-27T14:06:30.563Z,62.51
2022-12-27T14:09:26.009Z,62.82
2022-12-27T14:12:11.560Z,63.30
2022-12-27T14:14:42.535Z,63.21
2022-12-27T14:17:29.702Z,63.78
2022-12-27T14:20:08.014Z,65.40
2022-12-27T14:23:04.249Z,65.08
2022-12-27T14:26:03.508Z,64.23
2022-12-27T14:28:59.701Z,65.37
2022-12-27T14:31:51.963Z,65.29
2022-12-27T14:34:59.865Z,67.18
2022-12-27T14:38:08.292Z,65.67
2022-12-27T14:41:25.318Z,66.52
2022-12-27T14:44:36.331Z,66.78
2022-12-27T14:47:37.931Z,66.16
2022-12-27T14:50:51.138Z,66.38
2022-12-27T14:54:06.030Z,67.29
2022-12-27T14:56:46.816Z,68.69
2022-12-27T14:59:28.496Z,68.84
2022-12-27T15:02:06.605Z,69.12
2022-12-27T15:04:50.256Z,70.05
2022-12-27T15:07:48.888Z,70.03
2022-12-27T15:10:27.189Z,71.76
2022-12-27T15:13:12.875Z,70.79
2022-12-27T15:15:53.923Z,71.41
2022-12-27T15:18:40.382Z,73.38
2022-12-27T15:21:21.060Z,72.11
2022-12-27T15:23:55.182Z,72.23
2022-12-27T15:26:33.500Z,72.95
2022-12-27T15:29:18.765Z,73.77
2022-12-27T15:31:58.533Z,74.01
2022-12-27T15:34:40.556Z,76.08
2022-12-27T15:37:53.234Z,75.68
2022-12-27T15:40:39.663Z,75.98
2022-12-27T15:43:21.134Z,75.91
2022-12-27T15:46:05.232Z,75.35
2022-12-27T15:49:04.189Z,73.78
2022-12-27T15:51:42.715Z,74.54
2022-12-27T15:54:34.074Z,75.19
2022-12-27T15:57:24.117Z,74.87
2022-12-27T15:59:54.268Z,74.89
2022-12-27T16:02:32.741Z,75.47
2022-12-27T16:05:13.808Z,76.42
2022-12-27T16:07:45.926Z,76.92
2022-12-27T16:10:35.595Z,77.49
2022-12-27T16:13:22.668Z,76.65
2022-12-27T16:15:54.060Z,77.50
2022-12-27T16:19:05.490Z,77.85
2022-12-27T16:21:40.804Z,78.69
2022-12-27T16:24:19.386Z,77.63
2022-12-27T16:26:54.365Z,77.51
2022-12-27T16:29:28.953Z,78.45
2022-12-27T16:32:17.787Z,79.00
2022-12-27T16:34:48.535Z,79.04
2022-12-27T16:37:30.187Z,79.08
2022-12-27T16:40:37.901Z,79.55
2022-12-27T16:43:30.821Z,79.71
2022-12-27T16:46:17.729Z,79.81
2022-12-27T16:49:04.615Z,79.78
2022-12-27T16:51:43.969Z,80.22
2022-12-27T16:54:24.105Z,80.32
2022-12-27T16:57:15.615Z,80.89
2022-12-27T16:59:59.499Z,81.07
2022-12-27T17:02:32.626Z,80.78
2022-12-27T17:05:02.052Z,81.52
2022-12-27T17:07:44.775Z,81.96
2022-12-27T17:10:35.414Z,80.83
2022-12-27T17:13:12.201Z,80.70
2022-12-27T17:15:49.728Z,80.91
2022-12-27T17:18:29.892Z,81.42
2022-12-27T17:21:06.200Z,82.02
2022-12-27T17:23:41.537Z,81.76
2022-12-27T17:26:28.154Z,81.19
2022-12-27T17:29:05.851Z,82.12
2022-12-27T17:31:44.399Z,81.84
2022-12-27T17:34:20.474Z,82.33
2022-12-27T17:36:58.919Z,82.50
2022-12-27T17:39:43.037Z,82.91
2022-12-27T17:42:38.113Z,83.38
2022-12-27T17:45:22.711Z,82.35
2022-12-27T17:48:04.771Z,82.73
2022-12-27T17:50:33.717Z,83.16
2022-12-27T17:53:35.603Z,82.81
2022-12-27T17:56:35.649Z,82.40
2022-12-27T17:59:07.215Z,82.94
2022-12-27T18:01:39.646Z,83.33
2022-12-27T18:04:17.014Z,82.82
2022-12-27T18:06:45.605Z,83.17
2022-12-27T18:09:29.020Z,82.86
2022-12-27T18:11:57.633Z,83.72
2022-12-27T18:14:26.229Z,84.29
2022-12-27T18:16:54.795Z,84.36
2022-12-27T18:19:33.303Z,83.39
2022-12-27T18:22:03.948Z,83.46
2022-12-27T18:24:34.212Z,83.54
2022-12-27T18:27:06.560Z,84.92
2022-12-27T18:29:35.247Z,85.14
2022-12-27T18:32:08.653Z,84.82
2022-12-27T18:34:43.825Z,84.39
2022-12-27T18:37:17.405Z,84.85
2022-12-27T18:39:51.541Z,84.76
2022-12-27T18:42:25.811Z,85.17
2022-12-27T18:44:58.249Z,85.04
2022-12-27T18:47:28.541Z,86.02
2022-12-27T18:50:00.766Z,86.17
2022-12-27T18:52:32.873Z,85.28
2022-12-27T18:55:16.754Z,85.15
2022-12-27T18:57:45.672Z,85.75
2022-12-27T19:00:22.129Z,85.12
2022-12-27T19:02:52.064Z,85.30
2022-12-27T19:05:31.374Z,85.55
2022-12-27T19:08:10.381Z,86.67
2022-12-27T19:10:47.295Z,85.27
2022-12-27T19:13:23.126Z,86.72
2022-12-27T19:15:53.110Z,85.39
2022-12-27T19:18:24.830Z,85.65
2022-12-27T19:20:58.262Z,86.29
2022-12-27T19:23:32.743Z,86.92
2022-12-27T19:26:25.267Z,86.69
2022-12-27T19:29:02.765Z,86.74
2022-12-27T19:31:31.538Z,87.08
2022-12-27T19:34:03.318Z,86.17
2022-12-27T19:36:37.813Z,86.31
2022-12-27T19:39:19.064Z,87.27
2022-12-27T19:41:47.787Z,86.53
2022-12-27T19:44:16.668Z,86.65
2022-12-27T19:46:46.056Z,86.56
2022-12-27T19:52:06.630Z,86.62
2022-12-27T19:54:35.099Z,87.51
2022-12-27T19:57:03.611Z,85.57
2022-12-27T19:59:32.169Z,85.59
2022-12-27T20:02:00.748Z,86.81
2022-12-27T20:04:30.171Z,85.88
2022-12-27T20:06:58.693Z,85.59
2022-12-27T20:09:29.191Z,86.02
2022-12-27T20:11:57.747Z,87.10
2022-12-27T20:14:26.313Z,86.81
2022-12-27T20:16:55.066Z,86.50
2022-12-27T20:19:23.964Z,87.81
2022-12-27T20:21:52.714Z,87.74
2022-12-27T20:24:21.239Z,86.47
2022-12-27T20:26:51.140Z,87.09
2022-12-27T20:29:20.806Z,87.90
2022-12-27T20:31:52.072Z,88.16
2022-12-27T20:34:20.876Z,87.62
2022-12-27T20:36:49.364Z,87.57
2022-12-27T20:39:17.863Z,86.75
2022-12-27T20:41:46.400Z,87.29
2022-12-27T20:44:16.385Z,87.94
2022-12-27T20:46:45.095Z,87.29
2022-12-27T20:49:13.565Z,87.72
2022-12-27T20:51:42.563Z,87.20
2022-12-27T20:54:12.758Z,86.58
2022-12-27T20:56:41.199Z,87.94
2022-12-27T20:59:09.738Z,87.06
2022-12-27T21:01:39.722Z,87.26
2022-12-27T21:04:08.430Z,88.85
2022-12-27T21:06:36.905Z,88.57
2022-12-27T21:09:08.345Z,88.25
2022-12-27T21:11:37.525Z,88.72
2022-12-27T21:14:06.493Z,88.67
2022-12-27T21:16:36.337Z,88.69
2022-12-27T21:19:07.388Z,89.42
2022-12-27T21:21:37.559Z,89.19
2022-12-27T21:24:08.204Z,89.03
2022-12-27T21:26:38.622Z,89.20
2022-12-27T21:29:09.027Z,90.05
2022-12-27T21:31:37.920Z,89.02
2022-12-27T21:34:07.985Z,90.08
2022-12-27T21:36:38.312Z,89.54
2022-12-27T21:39:07.701Z,90.14
2022-12-27T21:41:38.336Z,89.76
2022-12-27T21:44:07.456Z,89.59
2022-12-27T21:46:37.837Z,89.64
2022-12-27T21:49:09.875Z,88.78
2022-12-27T21:51:38.988Z,90.31
2022-12-27T21:54:08.548Z,90.01
2022-12-27T21:56:37.884Z,90.17
2022-12-27T21:59:10.993Z,90.17
2022-12-27T22:01:51.333Z,90.25
2022-12-27T22:04:22.656Z,90.05
2022-12-27T22:06:51.379Z,90.37
2022-12-27T22:09:20.030Z,89.64
2022-12-27T22:11:49.003Z,90.67
2022-12-27T22:14:23.389Z,90.10
2022-12-27T22:16:53.867Z,90.09
2022-12-27T22:19:23.743Z,89.92
2022-12-27T22:21:52.242Z,90.51
2022-12-27T22:24:20.857Z,90.99
2022-12-27T22:26:50.223Z,91.18
2022-12-27T22:29:19.291Z,90.78
2022-12-27T22:31:47.864Z,90.14
2022-12-27T22:34:16.439Z,91.43
2022-12-27T22:36:46.314Z,90.40
2022-12-27T22:39:14.735Z,90.54
2022-12-27T22:41:43.236Z,91.23
2022-12-27T22:44:13.907Z,90.00
2022-12-27T22:47:25.152Z,90.05
2022-12-27T22:49:31.997Z,90.35
2022-12-27T22:52:02.088Z,90.93
2022-12-27T22:55:04.825Z,90.27
2022-12-27T22:57:19.075Z,90.23
2022-12-27T22:59:47.648Z,89.93
2022-12-27T23:02:16.428Z,89.84
2022-12-27T23:04:45.295Z,89.56
2022-12-27T23:07:19.932Z,90.31
2022-12-27T23:09:48.564Z,90.96
2022-12-27T23:12:17.120Z,91.17
2022-12-27T23:14:45.667Z,91.18
2022-12-27T23:17:14.377Z,91.04
2022-12-27T23:19:43.000Z,90.84
2022-12-27T23:22:11.446Z,90.81
2022-12-27T23:24:41.350Z,90.58
2022-12-27T23:27:09.907Z,91.11
2022-12-27T23:29:38.424Z,90.86
2022-12-27T23:32:07.054Z,90.83
2022-12-27T23:34:36.753Z,91.51
2022-12-27T23:37:05.289Z,90.98
2022-12-27T23:39:33.853Z,91.28
2022-12-27T23:42:03.874Z,91.00
2022-12-27T23:44:34.184Z,91.26
2022-12-27T23:47:05.213Z,91.73
2022-12-27T23:49:34.369Z,90.89
2022-12-27T23:52:03.268Z,91.32
2022-12-27T23:54:31.880Z,90.82
2022-12-27T23:57:20.111Z,91.05
2022-12-27T23:59:51.227Z,91.34
